Time;durP1;ratioP1;P1;durP2;ratioP2;P2;SDS_P1;SDS_P2;PMS_P1;PMS_P2;Temp;Humidity;BMP_temperature;BMP_pressure;BME280_temperature;BME280_humidity;BME280_pressure;Samples;Min_cycle;Max_cycle;Signal;HPM_P1;HPM_P2
2024/01/29 00:01:29;;;;;;;2.37;1.70;;;;;;;;;;5071481;28;20223;-44
2024/01/29 00:03:56;;;;;;;2.43;1.90;;;;;;;;;;5071804;28;20650;-44
2024/01/29 00:06:22;;;;;;;2.17;1.70;;;;;;;;;;5071850;28;20200;-45
2024/01/29 00:08:52;;;;;;;1.73;1.53;;;;;;;;;;5071558;28;20696;-44
2024/01/29 00:11:18;;;;;;;2.53;2.07;;;;;;;;;;5071790;28;20696;-44
2024/01/29 00:13:46;;;;;;;2.77;1.97;;;;;;;;;;5071362;28;20469;-45
2024/01/29 00:16:12;;;;;;;1.77;1.60;;;;;;;;;;5071842;28;20836;-45
2024/01/29 00:18:37;;;;;;;2.37;1.80;;;;;;;;;;5071458;28;20231;-45
2024/01/29 00:21:05;;;;;;;2.60;1.90;;;;;;;;;;5073464;28;20187;-45
2024/01/29 00:23:31;;;;;;;1.73;1.50;;;;;;;;;;5075558;28;20590;-45
2024/01/29 00:25:57;;;;;;;2.37;1.70;;;;;;;;;;5075290;28;20729;-47
2024/01/29 00:28:23;;;;;;;2.50;2.00;;;;;;;;;;5075536;28;20294;-47
2024/01/29 00:30:49;;;;;;;3.43;1.87;;;;;;;;;;5075542;28;20203;-44
2024/01/29 00:33:15;;;;;;;2.03;1.70;;;;;;;;;;5075747;28;20207;-44
2024/01/29 00:35:41;;;;;;;2.80;1.80;;;;;;;;;;5075538;28;20253;-44
2024/01/29 00:38:08;;;;;;;2.07;1.90;;;;;;;;;;5075310;28;20253;-44
2024/01/29 00:40:34;;;;;;;2.17;1.97;;;;;;;;;;5075237;28;20211;-44
2024/01/29 00:43:00;;;;;;;3.30;1.90;;;;;;;;;;5075430;28;20198;-44
2024/01/29 00:45:27;;;;;;;3.40;1.77;;;;;;;;;;5075232;28;20203;-44
2024/01/29 00:47:53;;;;;;;2.30;2.00;;;;;;;;;;5075224;28;20865;-44
2024/01/29 00:50:19;;;;;;;1.80;1.70;;;;;;;;;;5075062;28;20195;-44
2024/01/29 00:52:45;;;;;;;1.60;1.50;;;;;;;;;;5075063;28;20612;-47
2024/01/29 00:55:12;;;;;;;1.80;1.63;;;;;;;;;;5075129;28;20509;-46
2024/01/29 00:57:38;;;;;;;1.90;1.80;;;;;;;;;;5074869;28;20320;-44
2024/01/29 01:00:06;;;;;;;2.80;1.90;;;;;;;;;;5075053;28;20196;-48
2024/01/29 01:02:32;;;;;;;2.20;1.83;;;;;;;;;;5074556;28;20249;-47
2024/01/29 01:04:58;;;;;;;2.10;1.67;;;;;;;;;;5075077;28;20561;-46
2024/01/29 01:07:24;;;;;;;2.23;2.00;;;;;;;;;;5074771;28;20223;-44
2024/01/29 01:09:50;;;;;;;2.20;1.90;;;;;;;;;;5072777;28;20912;-45
2024/01/29 01:12:18;;;;;;;2.23;1.83;;;;;;;;;;5073201;28;20430;-45
2024/01/29 01:14:44;;;;;;;2.60;1.87;;;;;;;;;;5074595;28;20238;-45
2024/01/29 01:17:10;;;;;;;1.77;1.60;;;;;;;;;;5074754;28;20770;-45
2024/01/29 01:19:36;;;;;;;2.00;1.80;;;;;;;;;;5074533;28;20210;-45
2024/01/29 01:22:02;;;;;;;1.70;1.60;;;;;;;;;;5074713;28;20253;-45
2024/01/29 01:24:28;;;;;;;2.40;1.70;;;;;;;;;;5074540;28;20222;-46
2024/01/29 01:26:53;;;;;;;2.60;1.70;;;;;;;;;;5074420;28;20614;-45
2024/01/29 01:29:21;;;;;;;1.90;1.80;;;;;;;;;;5074502;28;20195;-45
2024/01/29 01:31:47;;;;;;;2.27;1.83;;;;;;;;;;5074271;28;20219;-45
2024/01/29 01:34:13;;;;;;;3.33;1.80;;;;;;;;;;5074419;28;20560;-45
2024/01/29 01:36:39;;;;;;;2.63;1.60;;;;;;;;;;5074119;28;20961;-45
2024/01/29 01:39:05;;;;;;;1.70;1.60;;;;;;;;;;5074391;28;20209;-46
2024/01/29 01:41:31;;;;;;;3.67;1.73;;;;;;;;;;5074249;28;20661;-45
2024/01/29 01:43:57;;;;;;;3.07;1.70;;;;;;;;;;5074178;28;20191;-44
2024/01/29 01:46:24;;;;;;;1.97;1.70;;;;;;;;;;5074118;28;20674;-45
2024/01/29 01:48:51;;;;;;;1.77;1.60;;;;;;;;;;5074029;28;20223;-45
2024/01/29 01:51:17;;;;;;;2.60;1.93;;;;;;;;;;5074039;28;20438;-46
2024/01/29 01:53:44;;;;;;;1.60;1.50;;;;;;;;;;5074024;28;20462;-48
2024/01/29 01:56:10;;;;;;;2.53;1.70;;;;;;;;;;5057032;28;20470;-47
2024/01/29 01:58:36;;;;;;;1.60;1.50;;;;;;;;;;5053921;28;20189;-47
2024/01/29 02:01:02;;;;;;;1.57;1.47;;;;;;;;;;5053763;28;20779;-47
2024/01/29 02:03:30;;;;;;;1.87;1.70;;;;;;;;;;5053974;28;20199;-47
2024/01/29 02:05:56;;;;;;;1.67;1.57;;;;;;;;;;5053759;28;20926;-47
2024/01/29 02:08:22;;;;;;;2.13;1.50;;;;;;;;;;5053796;28;20908;-47
2024/01/29 02:10:48;;;;;;;3.03;2.10;;;;;;;;;;5053650;28;20201;-47
2024/01/29 02:13:14;;;;;;;2.10;1.90;;;;;;;;;;5053590;28;20514;-47
2024/01/29 02:15:41;;;;;;;2.00;1.83;;;;;;;;;;5053404;28;20243;-47
2024/01/29 02:18:07;;;;;;;1.87;1.70;;;;;;;;;;5053552;28;20266;-47
2024/01/29 02:20:34;;;;;;;2.13;1.53;;;;;;;;;;5051766;28;20434;-47
2024/01/29 02:23:02;;;;;;;1.67;1.57;;;;;;;;;;5053644;28;20279;-47
2024/01/29 02:25:28;;;;;;;1.83;1.70;;;;;;;;;;5051769;28;20439;-47
2024/01/29 02:27:54;;;;;;;2.10;1.87;;;;;;;;;;5051653;28;20443;-47
2024/01/29 02:30:20;;;;;;;2.67;1.60;;;;;;;;;;5053205;28;20230;-47
2024/01/29 02:32:46;;;;;;;1.90;1.80;;;;;;;;;;5053267;28;20207;-47
2024/01/29 02:35:12;;;;;;;1.90;1.70;;;;;;;;;;5053337;28;20431;-47
2024/01/29 02:37:38;;;;;;;2.83;1.87;;;;;;;;;;5053108;28;20228;-47
2024/01/29 02:40:06;;;;;;;2.90;1.80;;;;;;;;;;5053212;28;20583;-47
2024/01/29 02:42:32;;;;;;;2.00;1.60;;;;;;;;;;5049639;28;20215;-47
2024/01/29 02:44:58;;;;;;;2.53;1.73;;;;;;;;;;5050978;28;20443;-47
2024/01/29 02:47:24;;;;;;;3.70;1.70;;;;;;;;;;5049587;28;20498;-47
2024/01/29 02:49:50;;;;;;;3.00;2.00;;;;;;;;;;5047756;28;20246;-47
2024/01/29 02:52:16;;;;;;;2.80;1.53;;;;;;;;;;5053090;28;20291;-47
2024/01/29 02:54:42;;;;;;;1.90;1.70;;;;;;;;;;5047661;28;20689;-47
2024/01/29 02:57:09;;;;;;;3.10;1.80;;;;;;;;;;5053072;28;20246;-47
2024/01/29 02:59:35;;;;;;;2.20;1.63;;;;;;;;;;5049610;28;20199;-46
2024/01/29 03:02:03;;;;;;;2.17;1.80;;;;;;;;;;5049317;28;20442;-47
2024/01/29 03:04:29;;;;;;;2.10;1.90;;;;;;;;;;5049405;28;20662;-46
2024/01/29 03:06:55;;;;;;;1.90;1.70;;;;;;;;;;5046782;28;20534;-47
2024/01/29 03:09:21;;;;;;;1.90;1.70;;;;;;;;;;5047539;28;20291;-47
2024/01/29 03:11:47;;;;;;;2.30;2.10;;;;;;;;;;5049091;28;20204;-47
2024/01/29 03:14:14;;;;;;;2.47;1.70;;;;;;;;;;5050814;28;20240;-47
2024/01/29 03:16:40;;;;;;;3.17;1.80;;;;;;;;;;5047148;28;20239;-46
2024/01/29 03:19:07;;;;;;;2.17;1.90;;;;;;;;;;5047453;28;20431;-47
2024/01/29 03:21:33;;;;;;;2.40;2.00;;;;;;;;;;5049049;28;20196;-47
2024/01/29 03:23:59;;;;;;;2.17;1.80;;;;;;;;;;5052432;28;20427;-47
2024/01/29 03:26:25;;;;;;;1.97;1.77;;;;;;;;;;5047237;28;20470;-47
2024/01/29 03:28:51;;;;;;;2.83;2.03;;;;;;;;;;5048891;28;20200;-47
2024/01/29 03:31:19;;;;;;;2.03;1.80;;;;;;;;;;5045419;28;20521;-46
2024/01/29 03:33:44;;;;;;;2.47;1.90;;;;;;;;;;5043778;28;20568;-46
2024/01/29 03:36:11;;;;;;;2.83;1.90;;;;;;;;;;5052328;28;20463;-47
2024/01/29 03:38:37;;;;;;;2.07;1.83;;;;;;;;;;5048784;28;20206;-47
2024/01/29 03:41:04;;;;;;;1.70;1.60;;;;;;;;;;5042180;28;20435;-46
2024/01/29 03:43:30;;;;;;;2.70;2.23;;;;;;;;;;5043616;28;20254;-47
2024/01/29 03:45:56;;;;;;;2.13;1.93;;;;;;;;;;5043460;28;20449;-46
2024/01/29 03:48:23;;;;;;;3.67;2.10;;;;;;;;;;5048824;28;20439;-47
2024/01/29 03:50:49;;;;;;;2.67;2.10;;;;;;;;;;5040530;28;20212;-47
2024/01/29 03:53:15;;;;;;;2.77;2.10;;;;;;;;;;5042105;28;20446;-47
2024/01/29 03:55:41;;;;;;;2.20;2.00;;;;;;;;;;5046042;28;20261;-46
2024/01/29 03:58:07;;;;;;;2.00;1.80;;;;;;;;;;5043522;28;20446;-47
2024/01/29 04:00:33;;;;;;;2.20;2.00;;;;;;;;;;5041634;28;20344;-47
2024/01/29 04:03:00;;;;;;;3.50;2.10;;;;;;;;;;5041745;28;20937;-47
2024/01/29 04:05:27;;;;;;;2.27;2.00;;;;;;;;;;5045173;28;20196;-47
2024/01/29 04:07:53;;;;;;;3.00;2.03;;;;;;;;;;5039907;28;20435;-47
2024/01/29 04:10:19;;;;;;;2.67;2.13;;;;;;;;;;5045031;28;20941;-46
2024/01/29 04:12:45;;;;;;;2.13;1.97;;;;;;;;;;5041390;28;20196;-47
2024/01/29 04:15:11;;;;;;;2.23;2.03;;;;;;;;;;5041550;28;20434;-47
2024/01/29 04:17:37;;;;;;;3.27;2.63;;;;;;;;;;5043055;28;20254;-47
2024/01/29 04:20:05;;;;;;;3.63;2.67;;;;;;;;;;5041611;28;20929;-46
2024/01/29 04:22:32;;;;;;;3.60;2.80;;;;;;;;;;5043286;28;20253;-47
2024/01/29 04:24:58;;;;;;;6.33;3.57;;;;;;;;;;5041546;28;20430;-47
2024/01/29 04:27:24;;;;;;;3.07;2.77;;;;;;;;;;5046631;28;20442;-47
2024/01/29 04:29:50;;;;;;;3.20;2.50;;;;;;;;;;5046536;28;20423;-47
2024/01/29 04:32:16;;;;;;;3.23;2.47;;;;;;;;;;5044943;28;20650;-54
2024/01/29 04:34:42;;;;;;;3.30;2.53;;;;;;;;;;5044870;28;20438;-47
2024/01/29 04:37:09;;;;;;;3.90;3.50;;;;;;;;;;5038019;28;20951;-47
2024/01/29 04:39:38;;;;;;;2.70;2.50;;;;;;;;;;5043055;28;20792;-47
2024/01/29 04:42:04;;;;;;;3.03;2.40;;;;;;;;;;5041395;28;20937;-47
2024/01/29 04:44:30;;;;;;;3.37;3.00;;;;;;;;;;5041285;28;20438;-47
2024/01/29 04:46:56;;;;;;;3.03;2.73;;;;;;;;;;5039414;28;20439;-47
2024/01/29 04:49:22;;;;;;;3.53;2.73;;;;;;;;;;5041256;28;20728;-47
2024/01/29 04:51:48;;;;;;;2.40;2.20;;;;;;;;;;5041259;28;20442;-47
2024/01/29 04:54:13;;;;;;;2.30;2.10;;;;;;;;;;5043276;28;20808;-46
2024/01/29 04:56:41;;;;;;;3.00;2.27;;;;;;;;;;5039476;28;21043;-46
2024/01/29 04:59:07;;;;;;;2.30;2.10;;;;;;;;;;5041101;28;20208;-46
2024/01/29 05:01:33;;;;;;;2.53;2.30;;;;;;;;;;5041094;28;20854;-46
2024/01/29 05:03:59;;;;;;;2.73;2.30;;;;;;;;;;5042904;28;20223;-46
2024/01/29 05:06:25;;;;;;;2.53;2.33;;;;;;;;;;5040064;28;20196;-47
2024/01/29 05:08:51;;;;;;;2.60;2.20;;;;;;;;;;5044581;28;20196;-46
2024/01/29 05:11:17;;;;;;;2.20;2.00;;;;;;;;;;5046494;28;20440;-47
2024/01/29 05:13:44;;;;;;;2.87;2.57;;;;;;;;;;5044505;28;20478;-46
2024/01/29 05:16:11;;;;;;;2.50;2.20;;;;;;;;;;5044125;28;20208;-47
2024/01/29 05:18:37;;;;;;;2.50;2.20;;;;;;;;;;5047792;28;20450;-46
2024/01/29 05:21:03;;;;;;;3.60;2.00;;;;;;;;;;5046108;28;20449;-46
2024/01/29 05:23:29;;;;;;;3.60;2.30;;;;;;;;;;5046280;28;20200;-46
2024/01/29 05:25:55;;;;;;;2.50;2.30;;;;;;;;;;5047602;28;20925;-47
2024/01/29 05:28:21;;;;;;;3.20;2.40;;;;;;;;;;5047721;28;20650;-47
2024/01/29 05:30:51;;;;;;;2.70;2.40;;;;;;;;;;5044059;28;20447;-47
2024/01/29 05:33:17;;;;;;;2.87;2.10;;;;;;;;;;5047829;28;20463;-47
2024/01/29 05:35:43;;;;;;;3.00;2.70;;;;;;;;;;5042572;28;20969;-47
2024/01/29 05:38:09;;;;;;;2.90;2.57;;;;;;;;;;5044150;28;20223;-46
2024/01/29 05:40:35;;;;;;;2.37;2.17;;;;;;;;;;5044169;28;20787;-46
2024/01/29 05:43:01;;;;;;;3.43;2.43;;;;;;;;;;5042398;28;20192;-46
2024/01/29 05:45:27;;;;;;;3.50;2.43;;;;;;;;;;5042383;28;20705;-46
2024/01/29 05:47:54;;;;;;;4.13;3.20;;;;;;;;;;5042432;28;20223;-46
2024/01/29 05:50:21;;;;;;;4.43;3.53;;;;;;;;;;5040473;28;20442;-46
2024/01/29 05:52:47;;;;;;;4.50;2.60;;;;;;;;;;5042241;28;20443;-47
2024/01/29 05:55:13;;;;;;;2.50;2.20;;;;;;;;;;5042091;28;20439;-46
2024/01/29 05:57:39;;;;;;;4.07;2.40;;;;;;;;;;5042054;28;20482;-46
2024/01/29 06:00:12;;;;;;;3.37;2.20;;;;;;;;;;5041796;28;20208;-46
2024/01/29 06:02:46;;;;;;;2.77;2.40;;;;;;;;;;5041960;28;20949;-47
2024/01/29 06:05:13;;;;;;;3.90;2.30;;;;;;;;;;5040249;28;20435;-47
2024/01/29 06:07:40;;;;;;;4.30;3.10;;;;;;;;;;5040105;28;20992;-47
2024/01/29 06:10:08;;;;;;;2.70;2.13;;;;;;;;;;5041848;28;20796;-47
2024/01/29 06:12:34;;;;;;;4.70;2.77;;;;;;;;;;5041576;28;20442;-47
2024/01/29 06:15:01;;;;;;;2.97;2.73;;;;;;;;;;5039753;28;20454;-47
2024/01/29 06:17:27;;;;;;;4.37;2.70;;;;;;;;;;5041455;28;20988;-47
2024/01/29 06:19:53;;;;;;;3.27;2.30;;;;;;;;;;5040579;28;20449;-47
2024/01/29 06:22:20;;;;;;;3.10;2.47;;;;;;;;;;5039768;28;20439;-47
2024/01/29 06:24:46;;;;;;;3.37;2.70;;;;;;;;;;5041432;28;20438;-47
2024/01/29 06:27:12;;;;;;;4.40;2.83;;;;;;;;;;5040132;28;20430;-47
2024/01/29 06:29:38;;;;;;;3.90;3.00;;;;;;;;;;5039617;28;20199;-47
2024/01/29 06:32:04;;;;;;;4.03;3.17;;;;;;;;;;5042898;28;20518;-47
2024/01/29 06:34:33;;;;;;;3.90;3.20;;;;;;;;;;5041339;28;20434;-48
2024/01/29 06:36:59;;;;;;;4.10;3.70;;;;;;;;;;5042834;28;21020;-47
2024/01/29 06:39:26;;;;;;;3.97;3.57;;;;;;;;;;5039633;28;20526;-47
2024/01/29 06:41:52;;;;;;;5.47;3.80;;;;;;;;;;5042895;28;20205;-47
2024/01/29 06:44:18;;;;;;;3.73;3.33;;;;;;;;;;5041131;28;20431;-47
2024/01/29 06:46:44;;;;;;;3.87;3.50;;;;;;;;;;5039307;28;20631;-47
2024/01/29 06:49:24;;;;;;;6.47;3.70;;;;;;;;;;5040869;28;20215;-47
2024/01/29 06:51:50;;;;;;;3.77;3.20;;;;;;;;;;5039207;28;20200;-47
2024/01/29 06:54:16;;;;;;;3.33;3.03;;;;;;;;;;5040976;28;20469;-47
2024/01/29 06:56:43;;;;;;;3.97;3.40;;;;;;;;;;5040617;28;20319;-47
2024/01/29 06:59:10;;;;;;;4.93;3.73;;;;;;;;;;5040441;28;20212;-47
2024/01/29 07:01:37;;;;;;;6.13;3.73;;;;;;;;;;5038747;28;20457;-47
2024/01/29 07:04:03;;;;;;;5.93;4.70;;;;;;;;;;5038934;28;20996;-47
2024/01/29 07:06:30;;;;;;;5.97;4.77;;;;;;;;;;5040749;28;20933;-47
2024/01/29 07:08:56;;;;;;;6.43;3.97;;;;;;;;;;5038877;28;20421;-46
2024/01/29 07:11:22;;;;;;;10.83;5.10;;;;;;;;;;5041127;28;20449;-47
2024/01/29 07:13:49;;;;;;;9.97;5.67;;;;;;;;;;5038418;28;20478;-47
2024/01/29 07:16:15;;;;;;;6.93;5.17;;;;;;;;;;5040583;28;20782;-47
2024/01/29 07:18:41;;;;;;;6.57;4.90;;;;;;;;;;5040583;28;20835;-47
2024/01/29 07:21:09;;;;;;;5.07;3.73;;;;;;;;;;5038568;28;20445;-47
2024/01/29 07:23:35;;;;;;;5.97;4.40;;;;;;;;;;5040539;28;21004;-47
2024/01/29 07:26:01;;;;;;;4.73;4.10;;;;;;;;;;5040332;28;20521;-47
2024/01/29 07:28:27;;;;;;;4.10;3.70;;;;;;;;;;5040492;28;21287;-47
2024/01/29 07:30:55;;;;;;;5.43;3.60;;;;;;;;;;5038537;28;20430;-47
2024/01/29 07:33:21;;;;;;;3.70;3.10;;;;;;;;;;5041505;28;20446;-47
2024/01/29 07:35:48;;;;;;;3.47;3.00;;;;;;;;;;5056902;28;20491;-47
2024/01/29 07:38:14;;;;;;;4.33;3.20;;;;;;;;;;5060187;28;20508;-47
2024/01/29 07:40:40;;;;;;;3.57;2.83;;;;;;;;;;5060312;28;20470;-46
2024/01/29 07:43:06;;;;;;;4.80;3.13;;;;;;;;;;5058509;28;20345;-47
2024/01/29 07:45:32;;;;;;;5.03;2.90;;;;;;;;;;5058404;28;20206;-47
2024/01/29 07:48:00;;;;;;;5.60;2.50;;;;;;;;;;5060170;28;20560;-47
2024/01/29 07:50:26;;;;;;;3.83;2.60;;;;;;;;;;5058551;28;20206;-47
2024/01/29 07:52:52;;;;;;;3.43;2.37;;;;;;;;;;5060091;28;20446;-47
2024/01/29 07:55:19;;;;;;;2.27;2.00;;;;;;;;;;5060139;28;20494;-47
2024/01/29 07:57:45;;;;;;;2.67;2.23;;;;;;;;;;5060023;28;20744;-47
2024/01/29 08:00:12;;;;;;;2.40;2.10;;;;;;;;;;5058225;28;20907;-47
2024/01/29 08:02:38;;;;;;;3.67;2.00;;;;;;;;;;5058411;28;20928;-47
2024/01/29 08:05:06;;;;;;;2.50;2.10;;;;;;;;;;5059280;28;20438;-47
2024/01/29 08:07:32;;;;;;;3.77;2.07;;;;;;;;;;5060068;28;20207;-47
2024/01/29 08:10:01;;;;;;;2.10;1.90;;;;;;;;;;5059920;28;20434;-47
2024/01/29 08:12:27;;;;;;;1.90;1.80;;;;;;;;;;5059944;28;20196;-47
2024/01/29 08:14:53;;;;;;;3.03;2.07;;;;;;;;;;5058038;28;20533;-47
2024/01/29 08:17:19;;;;;;;3.60;2.20;;;;;;;;;;5059470;28;20534;-47
2024/01/29 08:19:45;;;;;;;2.83;1.80;;;;;;;;;;5058090;28;20434;-47
2024/01/29 08:22:12;;;;;;;4.30;2.00;;;;;;;;;;5059785;28;20466;-47
2024/01/29 08:24:39;;;;;;;2.33;1.90;;;;;;;;;;5058045;28;20434;-47
2024/01/29 08:27:05;;;;;;;1.97;1.77;;;;;;;;;;5058036;28;20437;-47
2024/01/29 08:29:31;;;;;;;2.27;2.03;;;;;;;;;;5059939;28;20434;-47
2024/01/29 08:31:58;;;;;;;2.33;1.90;;;;;;;;;;5058119;28;20460;-47
2024/01/29 08:34:25;;;;;;;2.90;2.10;;;;;;;;;;5058133;28;20282;-47
2024/01/29 08:36:51;;;;;;;2.37;1.90;;;;;;;;;;5059653;28;20229;-47
2024/01/29 08:39:19;;;;;;;2.13;1.90;;;;;;;;;;5061520;28;20191;-47
2024/01/29 08:41:45;;;;;;;2.63;2.13;;;;;;;;;;5059195;28;20200;-47
2024/01/29 08:44:11;;;;;;;2.23;2.03;;;;;;;;;;5061426;28;20199;-47
2024/01/29 08:46:37;;;;;;;3.30;2.57;;;;;;;;;;5063478;28;20219;-47
2024/01/29 08:49:03;;;;;;;3.13;2.80;;;;;;;;;;5061289;28;20721;-47
2024/01/29 08:51:29;;;;;;;2.60;2.10;;;;;;;;;;5063466;28;20581;-47
2024/01/29 08:53:58;;;;;;;2.10;1.90;;;;;;;;;;5061601;28;20662;-47
2024/01/29 08:56:25;;;;;;;2.53;2.17;;;;;;;;;;5061566;28;20755;-47
2024/01/29 08:58:51;;;;;;;2.77;1.90;;;;;;;;;;5063127;28;20204;-47
2024/01/29 09:01:17;;;;;;;2.90;2.20;;;;;;;;;;5063270;28;20194;-47
2024/01/29 09:03:43;;;;;;;2.10;1.90;;;;;;;;;;5063137;28;20229;-47
2024/01/29 09:06:09;;;;;;;3.30;2.23;;;;;;;;;;5063266;28;20267;-47
2024/01/29 09:08:35;;;;;;;2.63;2.10;;;;;;;;;;5063167;28;20733;-47
2024/01/29 09:11:02;;;;;;;2.27;1.77;;;;;;;;;;5061212;28;20196;-47
2024/01/29 09:13:30;;;;;;;3.43;2.00;;;;;;;;;;5062848;28;20262;-47
2024/01/29 09:15:56;;;;;;;2.97;2.00;;;;;;;;;;5061081;28;20560;-47
2024/01/29 09:18:22;;;;;;;2.77;1.77;;;;;;;;;;5060983;28;20223;-46
2024/01/29 09:20:48;;;;;;;2.83;2.40;;;;;;;;;;5062780;28;20668;-46
2024/01/29 09:23:14;;;;;;;2.10;1.77;;;;;;;;;;5062729;28;20279;-46
2024/01/29 09:25:40;;;;;;;3.43;2.10;;;;;;;;;;5062683;28;20290;-45
2024/01/29 09:28:06;;;;;;;3.73;2.07;;;;;;;;;;5060249;28;21173;-47
2024/01/29 09:30:33;;;;;;;3.37;1.97;;;;;;;;;;5064333;28;20290;-44
2024/01/29 09:32:59;;;;;;;2.63;2.00;;;;;;;;;;5060847;28;20199;-44
2024/01/29 09:35:25;;;;;;;2.43;2.13;;;;;;;;;;5066125;28;20203;-45
2024/01/29 09:37:51;;;;;;;2.17;1.93;;;;;;;;;;5064187;28;20699;-45
2024/01/29 09:40:17;;;;;;;3.73;1.80;;;;;;;;;;5066085;28;20713;-45
2024/01/29 09:42:47;;;;;;;1.97;1.77;;;;;;;;;;5069446;28;20203;-45
2024/01/29 09:45:14;;;;;;;2.43;2.00;;;;;;;;;;5063712;28;20245;-45
2024/01/29 09:47:41;;;;;;;2.30;1.80;;;;;;;;;;5067352;28;20191;-45
2024/01/29 09:50:08;;;;;;;3.50;1.90;;;;;;;;;;5062392;28;20306;-45
2024/01/29 09:52:37;;;;;;;4.27;2.10;;;;;;;;;;5068411;28;20261;-45
2024/01/29 09:55:04;;;;;;;3.03;1.80;;;;;;;;;;5064891;28;20678;-45
2024/01/29 09:57:30;;;;;;;1.93;1.80;;;;;;;;;;5069071;28;20230;-45
2024/01/29 09:59:56;;;;;;;2.17;1.97;;;;;;;;;;5063723;28;20192;-45
2024/01/29 10:02:22;;;;;;;3.40;2.00;;;;;;;;;;5063324;28;20188;-45
2024/01/29 10:04:49;;;;;;;2.53;2.20;;;;;;;;;;5068788;28;20195;-45
2024/01/29 10:07:15;;;;;;;3.20;2.23;;;;;;;;;;5062371;28;20218;-45
2024/01/29 10:09:41;;;;;;;2.83;2.10;;;;;;;;;;5066987;28;20662;-45
2024/01/29 10:12:07;;;;;;;3.53;2.53;;;;;;;;;;5063339;28;20210;-46
2024/01/29 10:14:33;;;;;;;4.13;2.90;;;;;;;;;;5061448;28;20298;-46
2024/01/29 10:16:59;;;;;;;4.57;2.63;;;;;;;;;;5063238;28;20225;-46
2024/01/29 10:19:36;;;;;;;3.60;2.13;;;;;;;;;;5066646;28;20679;-46
2024/01/29 10:22:03;;;;;;;3.47;2.40;;;;;;;;;;5066672;28;20191;-46
2024/01/29 10:24:29;;;;;;;4.07;2.30;;;;;;;;;;5061746;28;20204;-44
2024/01/29 10:27:05;;;;;;;3.40;2.53;;;;;;;;;;5063163;28;20195;-44
2024/01/29 10:29:31;;;;;;;4.17;2.30;;;;;;;;;;5068334;28;20195;-45
2024/01/29 10:31:59;;;;;;;5.50;2.63;;;;;;;;;;5064805;28;20202;-44
2024/01/29 10:34:25;;;;;;;4.30;2.50;;;;;;;;;;5067087;28;20210;-47
2024/01/29 10:36:52;;;;;;;2.60;2.30;;;;;;;;;;5072931;28;20216;-45
2024/01/29 10:39:22;;;;;;;2.33;2.13;;;;;;;;;;5073137;28;20207;-46
2024/01/29 10:41:52;;;;;;;3.00;2.40;;;;;;;;;;5069456;28;20279;-44
2024/01/29 10:44:19;;;;;;;4.17;2.50;;;;;;;;;;5072872;28;20249;-45
2024/01/29 10:46:47;;;;;;;4.00;2.30;;;;;;;;;;5073025;28;20286;-45
2024/01/29 10:49:13;;;;;;;3.03;2.27;;;;;;;;;;5073028;28;20194;-45
2024/01/29 10:51:40;;;;;;;2.13;1.93;;;;;;;;;;5073010;28;20212;-46
2024/01/29 10:54:08;;;;;;;3.37;1.90;;;;;;;;;;5071006;28;20229;-46
2024/01/29 10:56:35;;;;;;;3.10;2.50;;;;;;;;;;5072313;28;20198;-46
2024/01/29 10:59:02;;;;;;;2.53;2.33;;;;;;;;;;5072656;28;20207;-46
2024/01/29 11:01:29;;;;;;;2.93;2.30;;;;;;;;;;5072308;28;20561;-44
2024/01/29 11:03:57;;;;;;;3.33;2.30;;;;;;;;;;5072062;28;20249;-45
2024/01/29 11:06:24;;;;;;;3.80;2.53;;;;;;;;;;5072081;28;20214;-46
2024/01/29 11:08:53;;;;;;;3.17;2.13;;;;;;;;;;5072610;28;20642;-45
2024/01/29 11:11:20;;;;;;;2.77;2.40;;;;;;;;;;5072288;28;20199;-45
2024/01/29 11:13:47;;;;;;;1.87;1.77;;;;;;;;;;5072183;28;20292;-45
2024/01/29 11:16:13;;;;;;;2.27;2.00;;;;;;;;;;5072277;28;20210;-45
2024/01/29 11:18:39;;;;;;;3.70;2.10;;;;;;;;;;5072081;28;20284;-46
2024/01/29 11:21:09;;;;;;;2.70;2.10;;;;;;;;;;5072014;28;20192;-45
2024/01/29 11:23:40;;;;;;;3.27;2.20;;;;;;;;;;5071863;28;20303;-45
2024/01/29 11:26:11;;;;;;;3.97;2.50;;;;;;;;;;5072565;28;20202;-46
2024/01/29 11:28:38;;;;;;;2.33;2.10;;;;;;;;;;5072052;28;20667;-45
2024/01/29 11:31:09;;;;;;;3.00;2.20;;;;;;;;;;5071935;28;20196;-45
2024/01/29 11:33:35;;;;;;;2.77;2.10;;;;;;;;;;5072058;28;20659;-45
2024/01/29 11:36:05;;;;;;;3.37;2.27;;;;;;;;;;5072042;28;20242;-46
2024/01/29 11:38:31;;;;;;;3.27;2.50;;;;;;;;;;5072161;28;20274;-46
2024/01/29 11:41:00;;;;;;;7.97;2.60;;;;;;;;;;5072062;28;20217;-46
2024/01/29 11:43:26;;;;;;;4.43;3.20;;;;;;;;;;5071999;28;20195;-46
2024/01/29 11:45:53;;;;;;;3.07;2.77;;;;;;;;;;5072197;28;20223;-48
2024/01/29 11:48:21;;;;;;;3.87;3.20;;;;;;;;;;5072082;28;20240;-46
2024/01/29 11:50:47;;;;;;;5.03;3.27;;;;;;;;;;5072328;28;20278;-45
2024/01/29 11:53:14;;;;;;;6.97;3.53;;;;;;;;;;5072222;28;20203;-46
2024/01/29 11:55:40;;;;;;;2.83;2.60;;;;;;;;;;5072326;28;20542;-46
2024/01/29 11:58:10;;;;;;;4.60;3.20;;;;;;;;;;5071951;28;20270;-45
2024/01/29 12:00:36;;;;;;;2.87;2.57;;;;;;;;;;5072277;28;20202;-46
2024/01/29 12:03:04;;;;;;;3.00;2.20;;;;;;;;;;5072157;28;20748;-46
2024/01/29 12:05:32;;;;;;;2.83;2.30;;;;;;;;;;5072086;28;20277;-46
2024/01/29 12:07:57;;;;;;;3.10;2.33;;;;;;;;;;5072205;28;20298;-46
2024/01/29 12:10:23;;;;;;;4.03;2.60;;;;;;;;;;5071992;28;20701;-46
2024/01/29 12:12:49;;;;;;;3.33;2.53;;;;;;;;;;5071751;28;20243;-46
2024/01/29 12:15:15;;;;;;;2.40;2.20;;;;;;;;;;5072101;28;20230;-46
2024/01/29 12:17:44;;;;;;;3.17;2.27;;;;;;;;;;5074658;28;20235;-45
2024/01/29 12:20:11;;;;;;;2.60;2.10;;;;;;;;;;5075972;28;20203;-45
2024/01/29 12:22:38;;;;;;;3.07;2.20;;;;;;;;;;5075982;28;20261;-46
2024/01/29 12:25:05;;;;;;;3.60;2.47;;;;;;;;;;5075902;28;20196;-45
2024/01/29 12:27:31;;;;;;;3.43;2.40;;;;;;;;;;5075953;28;20211;-45
2024/01/29 12:29:57;;;;;;;2.27;2.07;;;;;;;;;;5075724;28;20250;-45
2024/01/29 12:32:23;;;;;;;4.00;2.40;;;;;;;;;;5075646;28;20208;-45
2024/01/29 12:34:50;;;;;;;4.13;2.60;;;;;;;;;;5075618;28;20669;-45
2024/01/29 12:37:21;;;;;;;5.53;2.93;;;;;;;;;;5075505;28;20230;-45
2024/01/29 12:39:52;;;;;;;3.43;2.90;;;;;;;;;;5075754;28;20199;-46
2024/01/29 12:42:18;;;;;;;3.33;2.30;;;;;;;;;;5075600;28;20667;-46
2024/01/29 12:44:44;;;;;;;4.13;2.77;;;;;;;;;;5075592;28;20200;-46
2024/01/29 12:47:12;;;;;;;3.57;2.40;;;;;;;;;;5075559;28;20199;-45
2024/01/29 12:49:38;;;;;;;3.60;2.60;;;;;;;;;;5075379;28;20707;-46
2024/01/29 12:52:05;;;;;;;3.23;2.43;;;;;;;;;;5075419;28;20199;-45
2024/01/29 12:54:31;;;;;;;4.53;2.70;;;;;;;;;;5075392;28;20253;-46
2024/01/29 12:56:58;;;;;;;5.07;2.27;;;;;;;;;;5075342;28;20224;-45
2024/01/29 12:59:24;;;;;;;4.57;2.50;;;;;;;;;;5075100;28;20206;-46
2024/01/29 13:01:50;;;;;;;2.63;2.27;;;;;;;;;;5075189;28;20200;-45
2024/01/29 13:04:16;;;;;;;3.20;2.40;;;;;;;;;;5074945;28;20680;-46
2024/01/29 13:06:42;;;;;;;3.37;2.83;;;;;;;;;;5075167;28;20661;-45
2024/01/29 13:09:08;;;;;;;2.83;2.40;;;;;;;;;;5075109;28;20199;-46
2024/01/29 13:11:34;;;;;;;4.63;2.40;;;;;;;;;;5074934;28;20183;-46
2024/01/29 13:14:02;;;;;;;4.00;2.57;;;;;;;;;;5074615;28;20301;-46
2024/01/29 13:16:28;;;;;;;2.50;2.30;;;;;;;;;;5074926;28;20208;-46
2024/01/29 13:18:54;;;;;;;4.20;2.80;;;;;;;;;;5074708;28;20697;-46
2024/01/29 13:21:21;;;;;;;3.37;2.67;;;;;;;;;;5074642;28;20217;-45
2024/01/29 13:23:47;;;;;;;4.17;2.80;;;;;;;;;;5074838;28;20207;-46
2024/01/29 13:26:13;;;;;;;3.00;2.60;;;;;;;;;;5074670;28;20198;-45
2024/01/29 13:28:39;;;;;;;4.10;2.73;;;;;;;;;;5074065;28;20199;-45
2024/01/29 13:31:06;;;;;;;4.23;2.40;;;;;;;;;;5074445;28;20749;-46
2024/01/29 13:33:32;;;;;;;3.27;2.70;;;;;;;;;;5074285;28;20218;-46
2024/01/29 13:35:59;;;;;;;5.50;2.87;;;;;;;;;;5074715;28;20195;-46
2024/01/29 13:38:26;;;;;;;3.87;2.57;;;;;;;;;;5074322;28;20742;-46
2024/01/29 13:40:52;;;;;;;4.00;2.77;;;;;;;;;;5074564;28;20206;-46
2024/01/29 13:43:19;;;;;;;4.77;2.80;;;;;;;;;;5074319;28;20203;-46
2024/01/29 13:45:45;;;;;;;3.10;2.70;;;;;;;;;;5074405;28;20531;-46
2024/01/29 13:48:13;;;;;;;3.87;2.73;;;;;;;;;;5074360;28;20669;-45
2024/01/29 13:50:39;;;;;;;3.33;2.70;;;;;;;;;;5074287;28;20261;-45
2024/01/29 13:53:06;;;;;;;3.87;2.87;;;;;;;;;;5074307;28;20195;-46
2024/01/29 13:55:32;;;;;;;3.40;3.10;;;;;;;;;;5074162;28;20264;-46
2024/01/29 13:57:58;;;;;;;3.57;2.90;;;;;;;;;;5074168;28;20247;-46
2024/01/29 14:00:24;;;;;;;3.27;2.77;;;;;;;;;;5074065;28;20666;-46
2024/01/29 14:02:51;;;;;;;4.93;2.83;;;;;;;;;;5074076;28;20196;-45
2024/01/29 14:05:18;;;;;;;4.20;3.50;;;;;;;;;;5074038;28;20196;-45
2024/01/29 14:07:44;;;;;;;5.13;3.57;;;;;;;;;;5073975;28;20192;-45
2024/01/29 14:10:11;;;;;;;3.90;2.90;;;;;;;;;;5074016;28;20722;-45
2024/01/29 14:12:37;;;;;;;4.20;3.20;;;;;;;;;;5073619;28;20203;-46
2024/01/29 14:15:04;;;;;;;4.23;3.00;;;;;;;;;;5073869;28;20200;-45
2024/01/29 14:17:30;;;;;;;3.80;3.30;;;;;;;;;;5073570;28;20242;-45
2024/01/29 14:19:56;;;;;;;3.50;2.90;;;;;;;;;;5073860;28;20195;-45
2024/01/29 14:22:23;;;;;;;3.40;3.10;;;;;;;;;;5073717;28;20653;-45
2024/01/29 14:24:49;;;;;;;5.20;3.43;;;;;;;;;;5073677;28;20210;-45
2024/01/29 14:27:15;;;;;;;5.53;3.50;;;;;;;;;;5073640;28;20199;-46
2024/01/29 14:29:41;;;;;;;4.50;3.40;;;;;;;;;;5073534;28;20214;-46
2024/01/29 14:32:11;;;;;;;4.10;3.10;;;;;;;;;;5073538;28;20198;-45
2024/01/29 14:34:37;;;;;;;4.47;3.33;;;;;;;;;;5073069;28;20204;-45
2024/01/29 14:37:03;;;;;;;4.33;3.53;;;;;;;;;;5073459;28;20281;-46
2024/01/29 14:39:32;;;;;;;6.60;3.50;;;;;;;;;;5072732;28;20206;-46